sensor_id;sensor_type;location;lat;lon;timestamp;temperature;humidity
11812;DHT22;5963;50.184;9.162;2023-07-16T00:01:41;19.50;99.90
11812;DHT22;5963;50.184;9.162;2023-07-16T00:04:13;19.50;99.90
11812;DHT22;5963;50.184;9.162;2023-07-16T00:06:45;19.50;99.90
11812;DHT22;5963;50.184;9.162;2023-07-16T00:09:17;19.50;99.90
11812;DHT22;5963;50.184;9.162;2023-07-16T00:11:47;19.40;99.90
11812;DHT22;5963;50.184;9.162;2023-07-16T00:14:17;19.50;99.90
11812;DHT22;5963;50.184;9.162;2023-07-16T00:16:48;19.50;99.90
11812;DHT22;5963;50.184;9.162;2023-07-16T00:19:18;19.40;99.90
11812;DHT22;5963;50.184;9.162;2023-07-16T00:21:48;19.40;99.90
11812;DHT22;5963;50.184;9.162;2023-07-16T00:24:18;19.40;99.90
11812;DHT22;5963;50.184;9.162;2023-07-16T00:26:47;19.40;99.90
11812;DHT22;5963;50.184;9.162;2023-07-16T00:29:17;19.40;99.90
11812;DHT22;5963;50.184;9.162;2023-07-16T00:31:49;19.40;99.90
11812;DHT22;5963;50.184;9.162;2023-07-16T00:34:21;19.40;99.90
11812;DHT22;5963;50.184;9.162;2023-07-16T00:36:51;19.50;99.90
11812;DHT22;5963;50.184;9.162;2023-07-16T00:39:21;19.40;99.90
11812;DHT22;5963;50.184;9.162;2023-07-16T00:41:52;19.30;99.90
11812;DHT22;5963;50.184;9.162;2023-07-16T00:44:24;19.30;99.90
11812;DHT22;5963;50.184;9.162;2023-07-16T00:46:55;19.40;99.90
11812;DHT22;5963;50.184;9.162;2023-07-16T00:49:25;19.30;99.90
11812;DHT22;5963;50.184;9.162;2023-07-16T00:51:57;19.20;99.90
11812;DHT22;5963;50.184;9.162;2023-07-16T00:54:31;19.20;99.90
11812;DHT22;5963;50.184;9.162;2023-07-16T00:57:01;19.20;99.90
11812;DHT22;5963;50.184;9.162;2023-07-16T00:59:35;19.20;99.90
11812;DHT22;5963;50.184;9.162;2023-07-16T01:02:09;19.20;99.90
11812;DHT22;5963;50.184;9.162;2023-07-16T01:04:38;19.20;99.90
11812;DHT22;5963;50.184;9.162;2023-07-16T01:07:11;19.20;99.90
11812;DHT22;5963;50.184;9.162;2023-07-16T01:09:43;19.30;99.90
11812;DHT22;5963;50.184;9.162;2023-07-16T01:12:14;19.20;99.90
11812;DHT22;5963;50.184;9.162;2023-07-16T01:14:45;19.10;99.90
11812;DHT22;5963;50.184;9.162;2023-07-16T01:17:17;19.10;99.90
11812;DHT22;5963;50.184;9.162;2023-07-16T01:19:47;19.00;99.90
11812;DHT22;5963;50.184;9.162;2023-07-16T01:22:35;19.00;99.90
11812;DHT22;5963;50.184;9.162;2023-07-16T01:25:32;19.10;99.90
11812;DHT22;5963;50.184;9.162;2023-07-16T01:28:16;19.00;99.90
11812;DHT22;5963;50.184;9.162;2023-07-16T01:30:52;19.00;99.90
11812;DHT22;5963;50.184;9.162;2023-07-16T01:33:26;18.90;99.90
11812;DHT22;5963;50.184;9.162;2023-07-16T01:35:56;19.00;99.90
11812;DHT22;5963;50.184;9.162;2023-07-16T01:38:27;18.90;99.90
11812;DHT22;5963;50.184;9.162;2023-07-16T01:40:59;18.80;99.90
11812;DHT22;5963;50.184;9.162;2023-07-16T01:43:29;18.80;99.90
11812;DHT22;5963;50.184;9.162;2023-07-16T01:46:03;18.80;99.90
11812;DHT22;5963;50.184;9.162;2023-07-16T01:48:34;18.80;99.90
11812;DHT22;5963;50.184;9.162;2023-07-16T01:51:05;18.80;99.90
11812;DHT22;5963;50.184;9.162;2023-07-16T01:53:36;18.70;99.90
11812;DHT22;5963;50.184;9.162;2023-07-16T01:56:06;18.60;99.90
11812;DHT22;5963;50.184;9.162;2023-07-16T01:58:38;18.60;99.90
11812;DHT22;5963;50.184;9.162;2023-07-16T02:01:09;18.60;99.90
11812;DHT22;5963;50.184;9.162;2023-07-16T02:03:39;18.60;99.90
11812;DHT22;5963;50.184;9.162;2023-07-16T02:06:09;18.60;99.90
11812;DHT22;5963;50.184;9.162;2023-07-16T02:08:39;18.60;99.90
11812;DHT22;5963;50.184;9.162;2023-07-16T02:11:09;18.70;99.90
11812;DHT22;5963;50.184;9.162;2023-07-16T02:13:39;18.60;99.90
11812;DHT22;5963;50.184;9.162;2023-07-16T02:16:10;18.60;99.90
11812;DHT22;5963;50.184;9.162;2023-07-16T02:18:41;18.60;99.90
11812;DHT22;5963;50.184;9.162;2023-07-16T02:21:11;18.50;99.90
11812;DHT22;5963;50.184;9.162;2023-07-16T02:23:41;18.50;99.90
11812;DHT22;5963;50.184;9.162;2023-07-16T02:26:11;18.50;99.90
11812;DHT22;5963;50.184;9.162;2023-07-16T02:28:41;18.50;99.90
11812;DHT22;5963;50.184;9.162;2023-07-16T02:31:12;18.50;99.90
11812;DHT22;5963;50.184;9.162;2023-07-16T02:33:44;18.40;99.90
11812;DHT22;5963;50.184;9.162;2023-07-16T02:36:14;18.40;99.90
11812;DHT22;5963;50.184;9.162;2023-07-16T02:38:44;18.40;99.90
11812;DHT22;5963;50.184;9.162;2023-07-16T02:41:17;18.10;99.90
11812;DHT22;5963;50.184;9.162;2023-07-16T02:43:47;18.10;99.90
11812;DHT22;5963;50.184;9.162;2023-07-16T02:46:18;18.10;99.90
11812;DHT22;5963;50.184;9.162;2023-07-16T02:48:48;18.00;99.90
11812;DHT22;5963;50.184;9.162;2023-07-16T02:51:18;17.90;99.90
11812;DHT22;5963;50.184;9.162;2023-07-16T02:53:50;17.80;99.90
11812;DHT22;5963;50.184;9.162;2023-07-16T02:56:20;17.80;99.90
11812;DHT22;5963;50.184;9.162;2023-07-16T02:58:52;17.70;99.90
11812;DHT22;5963;50.184;9.162;2023-07-16T03:01:27;17.70;99.90
11812;DHT22;5963;50.184;9.162;2023-07-16T03:04:00;17.60;99.90
11812;DHT22;5963;50.184;9.162;2023-07-16T03:06:34;17.50;99.90
11812;DHT22;5963;50.184;9.162;2023-07-16T03:09:05;17.50;99.90
11812;DHT22;5963;50.184;9.162;2023-07-16T03:11:37;17.40;99.90
11812;DHT22;5963;50.184;9.162;2023-07-16T03:14:07;17.40;99.90
11812;DHT22;5963;50.184;9.162;2023-07-16T03:16:46;17.40;99.90
11812;DHT22;5963;50.184;9.162;2023-07-16T03:19:20;17.40;99.90
11812;DHT22;5963;50.184;9.162;2023-07-16T03:21:51;17.40;99.90
11812;DHT22;5963;50.184;9.162;2023-07-16T03:24:26;17.30;99.90
11812;DHT22;5963;50.184;9.162;2023-07-16T03:27:01;17.20;99.90
11812;DHT22;5963;50.184;9.162;2023-07-16T03:29:52;17.20;99.90
11812;DHT22;5963;50.184;9.162;2023-07-16T03:32:28;17.20;99.90
11812;DHT22;5963;50.184;9.162;2023-07-16T03:35:17;17.10;99.90
11812;DHT22;5963;50.184;9.162;2023-07-16T03:37:48;17.10;99.90
11812;DHT22;5963;50.184;9.162;2023-07-16T03:40:22;17.00;99.90
11812;DHT22;5963;50.184;9.162;2023-07-16T03:42:52;16.90;99.90
11812;DHT22;5963;50.184;9.162;2023-07-16T03:45:26;17.00;99.90
11812;DHT22;5963;50.184;9.162;2023-07-16T03:47:58;17.00;99.90
11812;DHT22;5963;50.184;9.162;2023-07-16T03:50:40;17.00;99.90
11812;DHT22;5963;50.184;9.162;2023-07-16T03:53:14;17.00;99.90
11812;DHT22;5963;50.184;9.162;2023-07-16T03:55:46;17.00;99.90
11812;DHT22;5963;50.184;9.162;2023-07-16T03:58:18;17.10;99.90
11812;DHT22;5963;50.184;9.162;2023-07-16T04:00:52;17.10;99.90
11812;DHT22;5963;50.184;9.162;2023-07-16T04:03:25;17.00;99.90
11812;DHT22;5963;50.184;9.162;2023-07-16T04:06:11;17.00;99.90
11812;DHT22;5963;50.184;9.162;2023-07-16T04:08:44;17.10;99.90
11812;DHT22;5963;50.184;9.162;2023-07-16T04:11:16;17.00;99.90
11812;DHT22;5963;50.184;9.162;2023-07-16T04:13:47;17.00;99.90
11812;DHT22;5963;50.184;9.162;2023-07-16T04:16:17;17.00;99.90
11812;DHT22;5963;50.184;9.162;2023-07-16T04:18:49;17.00;99.90
11812;DHT22;5963;50.184;9.162;2023-07-16T04:21:19;17.10;99.90
11812;DHT22;5963;50.184;9.162;2023-07-16T04:23:49;17.20;99.90
11812;DHT22;5963;50.184;9.162;2023-07-16T04:26:19;17.30;99.90
11812;DHT22;5963;50.184;9.162;2023-07-16T04:28:49;17.20;99.90
11812;DHT22;5963;50.184;9.162;2023-07-16T04:31:19;17.20;99.90
11812;DHT22;5963;50.184;9.162;2023-07-16T04:33:51;17.30;99.90
11812;DHT22;5963;50.184;9.162;2023-07-16T04:36:20;17.40;99.90
11812;DHT22;5963;50.184;9.162;2023-07-16T04:38:54;17.50;99.90
11812;DHT22;5963;50.184;9.162;2023-07-16T04:41:25;17.60;99.90
11812;DHT22;5963;50.184;9.162;2023-07-16T04:43:55;17.60;99.90
11812;DHT22;5963;50.184;9.162;2023-07-16T04:46:25;17.60;99.90
11812;DHT22;5963;50.184;9.162;2023-07-16T04:48:56;17.70;99.90
11812;DHT22;5963;50.184;9.162;2023-07-16T04:51:37;17.90;99.90
11812;DHT22;5963;50.184;9.162;2023-07-16T04:54:07;18.10;99.90
11812;DHT22;5963;50.184;9.162;2023-07-16T04:56:40;18.00;99.90
11812;DHT22;5963;50.184;9.162;2023-07-16T04:59:14;17.90;99.90
11812;DHT22;5963;50.184;9.162;2023-07-16T05:01:44;18.00;99.90
11812;DHT22;5963;50.184;9.162;2023-07-16T05:04:15;18.30;99.90
11812;DHT22;5963;50.184;9.162;2023-07-16T05:06:47;18.70;99.90
11812;DHT22;5963;50.184;9.162;2023-07-16T05:09:17;18.80;99.90
11812;DHT22;5963;50.184;9.162;2023-07-16T05:11:55;18.80;99.90
11812;DHT22;5963;50.184;9.162;2023-07-16T05:14:28;18.90;99.90
11812;DHT22;5963;50.184;9.162;2023-07-16T05:16:58;19.80;99.90
11812;DHT22;5963;50.184;9.162;2023-07-16T05:19:35;19.90;99.90
11812;DHT22;5963;50.184;9.162;2023-07-16T05:22:07;20.00;99.90
11812;DHT22;5963;50.184;9.162;2023-07-16T05:24:39;20.00;99.90
11812;DHT22;5963;50.184;9.162;2023-07-16T05:27:12;19.90;99.90
11812;DHT22;5963;50.184;9.162;2023-07-16T05:29:44;19.80;99.90
11812;DHT22;5963;50.184;9.162;2023-07-16T05:32:14;20.20;99.90
11812;DHT22;5963;50.184;9.162;2023-07-16T05:35:01;20.40;99.90
11812;DHT22;5963;50.184;9.162;2023-07-16T05:37:32;20.60;99.90
11812;DHT22;5963;50.184;9.162;2023-07-16T05:40:09;20.60;99.90
11812;DHT22;5963;50.184;9.162;2023-07-16T05:42:47;20.30;99.90
11812;DHT22;5963;50.184;9.162;2023-07-16T05:45:32;20.20;99.90
11812;DHT22;5963;50.184;9.162;2023-07-16T05:48:10;20.40;99.90
11812;DHT22;5963;50.184;9.162;2023-07-16T05:50:47;20.20;99.90
11812;DHT22;5963;50.184;9.162;2023-07-16T05:53:20;20.10;99.90
11812;DHT22;5963;50.184;9.162;2023-07-16T05:55:49;19.90;99.90
11812;DHT22;5963;50.184;9.162;2023-07-16T05:58:23;20.40;99.90
11812;DHT22;5963;50.184;9.162;2023-07-16T06:01:03;20.90;99.90
11812;DHT22;5963;50.184;9.162;2023-07-16T06:03:35;21.80;99.90
11812;DHT22;5963;50.184;9.162;2023-07-16T06:06:10;21.00;99.90
11812;DHT22;5963;50.184;9.162;2023-07-16T06:08:47;21.30;99.90
11812;DHT22;5963;50.184;9.162;2023-07-16T06:11:22;21.80;99.90
11812;DHT22;5963;50.184;9.162;2023-07-16T06:14:00;21.50;99.90
11812;DHT22;5963;50.184;9.162;2023-07-16T06:16:35;21.00;99.90
11812;DHT22;5963;50.184;9.162;2023-07-16T06:19:05;20.10;99.90
11812;DHT22;5963;50.184;9.162;2023-07-16T06:21:37;20.70;99.90
11812;DHT22;5963;50.184;9.162;2023-07-16T06:24:09;20.90;99.90
11812;DHT22;5963;50.184;9.162;2023-07-16T06:26:44;21.20;99.90
11812;DHT22;5963;50.184;9.162;2023-07-16T06:29:16;20.50;99.90
11812;DHT22;5963;50.184;9.162;2023-07-16T06:31:56;21.30;99.90
11812;DHT22;5963;50.184;9.162;2023-07-16T06:34:31;21.50;99.90
11812;DHT22;5963;50.184;9.162;2023-07-16T06:37:09;21.30;99.90
11812;DHT22;5963;50.184;9.162;2023-07-16T06:39:42;21.90;99.90
11812;DHT22;5963;50.184;9.162;2023-07-16T06:42:17;22.10;99.90
11812;DHT22;5963;50.184;9.162;2023-07-16T06:44:48;21.80;99.90
11812;DHT22;5963;50.184;9.162;2023-07-16T06:47:23;21.40;99.90
11812;DHT22;5963;50.184;9.162;2023-07-16T06:49:53;20.60;99.90
11812;DHT22;5963;50.184;9.162;2023-07-16T06:52:27;20.90;99.90
11812;DHT22;5963;50.184;9.162;2023-07-16T06:55:11;21.10;99.90
11812;DHT22;5963;50.184;9.162;2023-07-16T06:57:52;21.30;99.90
11812;DHT22;5963;50.184;9.162;2023-07-16T07:00:23;20.80;99.90
11812;DHT22;5963;50.184;9.162;2023-07-16T07:02:55;21.30;99.90
11812;DHT22;5963;50.184;9.162;2023-07-16T07:05:32;21.20;99.90
11812;DHT22;5963;50.184;9.162;2023-07-16T07:08:18;21.20;99.90
11812;DHT22;5963;50.184;9.162;2023-07-16T07:10:52;21.10;99.90
11812;DHT22;5963;50.184;9.162;2023-07-16T07:13:32;21.00;99.90
11812;DHT22;5963;50.184;9.162;2023-07-16T07:16:09;21.00;99.90
11812;DHT22;5963;50.184;9.162;2023-07-16T07:18:40;21.00;99.90
11812;DHT22;5963;50.184;9.162;2023-07-16T07:21:21;21.20;99.90
11812;DHT22;5963;50.184;9.162;2023-07-16T07:24:32;21.40;99.90
11812;DHT22;5963;50.184;9.162;2023-07-16T07:27:08;21.90;99.90
11812;DHT22;5963;50.184;9.162;2023-07-16T07:29:44;21.50;99.90
11812;DHT22;5963;50.184;9.162;2023-07-16T07:32:28;21.20;99.90
11812;DHT22;5963;50.184;9.162;2023-07-16T07:35:17;21.00;99.90
11812;DHT22;5963;50.184;9.162;2023-07-16T07:38:18;21.10;99.90
11812;DHT22;5963;50.184;9.162;2023-07-16T07:40:44;21.60;99.90
11812;DHT22;5963;50.184;9.162;2023-07-16T07:43:33;21.90;99.90
11812;DHT22;5963;50.184;9.162;2023-07-16T07:46:03;21.60;99.90
11812;DHT22;5963;50.184;9.162;2023-07-16T07:48:37;21.70;99.90
11812;DHT22;5963;50.184;9.162;2023-07-16T07:51:21;21.90;99.90
11812;DHT22;5963;50.184;9.162;2023-07-16T07:53:59;21.60;99.90
11812;DHT22;5963;50.184;9.162;2023-07-16T07:56:40;21.40;99.90
11812;DHT22;5963;50.184;9.162;2023-07-16T07:59:15;21.60;99.90
11812;DHT22;5963;50.184;9.162;2023-07-16T08:01:45;21.80;99.90
11812;DHT22;5963;50.184;9.162;2023-07-16T08:04:18;22.00;99.90
11812;DHT22;5963;50.184;9.162;2023-07-16T08:06:54;21.80;99.90
11812;DHT22;5963;50.184;9.162;2023-07-16T08:09:25;22.20;99.90
11812;DHT22;5963;50.184;9.162;2023-07-16T08:12:24;22.40;99.90
11812;DHT22;5963;50.184;9.162;2023-07-16T08:15:03;22.30;99.90
11812;DHT22;5963;50.184;9.162;2023-07-16T08:17:41;22.10;99.90
11812;DHT22;5963;50.184;9.162;2023-07-16T08:20:20;22.00;99.90
11812;DHT22;5963;50.184;9.162;2023-07-16T08:22:56;21.80;99.90
11812;DHT22;5963;50.184;9.162;2023-07-16T08:25:33;21.40;99.90
11812;DHT22;5963;50.184;9.162;2023-07-16T08:28:07;21.80;99.90
11812;DHT22;5963;50.184;9.162;2023-07-16T08:30:46;22.40;99.90
11812;DHT22;5963;50.184;9.162;2023-07-16T08:33:16;22.10;99.90
11812;DHT22;5963;50.184;9.162;2023-07-16T08:35:53;22.10;99.90
11812;DHT22;5963;50.184;9.162;2023-07-16T08:38:38;21.90;99.90
11812;DHT22;5963;50.184;9.162;2023-07-16T08:41:22;22.40;99.90
11812;DHT22;5963;50.184;9.162;2023-07-16T08:44:06;22.30;99.90
11812;DHT22;5963;50.184;9.162;2023-07-16T08:46:46;21.10;99.90
11812;DHT22;5963;50.184;9.162;2023-07-16T08:49:31;21.10;99.90
11812;DHT22;5963;50.184;9.162;2023-07-16T08:52:11;21.60;99.90
11812;DHT22;5963;50.184;9.162;2023-07-16T08:54:41;22.00;99.90
11812;DHT22;5963;50.184;9.162;2023-07-16T08:57:16;21.80;99.90
11812;DHT22;5963;50.184;9.162;2023-07-16T08:59:52;22.10;99.90
11812;DHT22;5963;50.184;9.162;2023-07-16T09:02:37;22.60;99.90
11812;DHT22;5963;50.184;9.162;2023-07-16T09:05:11;22.80;99.90
11812;DHT22;5963;50.184;9.162;2023-07-16T09:08:10;22.60;99.90
11812;DHT22;5963;50.184;9.162;2023-07-16T09:10:43;22.70;99.90
11812;DHT22;5963;50.184;9.162;2023-07-16T09:13:17;22.20;99.90
11812;DHT22;5963;50.184;9.162;2023-07-16T09:15:58;21.60;99.90
11812;DHT22;5963;50.184;9.162;2023-07-16T09:18:35;21.20;99.90
11812;DHT22;5963;50.184;9.162;2023-07-16T09:21:05;21.30;99.90
11812;DHT22;5963;50.184;9.162;2023-07-16T09:23:37;21.60;99.90
11812;DHT22;5963;50.184;9.162;2023-07-16T09:26:10;22.10;99.90
11812;DHT22;5963;50.184;9.162;2023-07-16T09:28:53;22.30;99.90
11812;DHT22;5963;50.184;9.162;2023-07-16T09:31:26;22.80;99.90
11812;DHT22;5963;50.184;9.162;2023-07-16T09:34:05;22.60;99.90
11812;DHT22;5963;50.184;9.162;2023-07-16T09:36:39;22.80;99.90
11812;DHT22;5963;50.184;9.162;2023-07-16T09:39:10;23.20;99.90
11812;DHT22;5963;50.184;9.162;2023-07-16T09:41:43;22.90;99.90
11812;DHT22;5963;50.184;9.162;2023-07-16T09:44:28;23.60;99.90
11812;DHT22;5963;50.184;9.162;2023-07-16T09:47:04;23.10;99.90
11812;DHT22;5963;50.184;9.162;2023-07-16T09:49:39;23.30;99.90
11812;DHT22;5963;50.184;9.162;2023-07-16T09:52:16;23.10;99.90
11812;DHT22;5963;50.184;9.162;2023-07-16T09:54:52;23.30;99.90
11812;DHT22;5963;50.184;9.162;2023-07-16T09:57:32;23.80;99.90
11812;DHT22;5963;50.184;9.162;2023-07-16T10:00:12;23.40;99.90
11812;DHT22;5963;50.184;9.162;2023-07-16T10:02:53;23.40;99.90
11812;DHT22;5963;50.184;9.162;2023-07-16T10:05:31;23.90;99.90
11812;DHT22;5963;50.184;9.162;2023-07-16T10:08:18;24.30;99.90
11812;DHT22;5963;50.184;9.162;2023-07-16T10:10:54;24.30;99.90
11812;DHT22;5963;50.184;9.162;2023-07-16T10:13:35;24.20;99.90
11812;DHT22;5963;50.184;9.162;2023-07-16T10:16:19;24.50;99.90
11812;DHT22;5963;50.184;9.162;2023-07-16T10:18:54;24.00;99.90
11812;DHT22;5963;50.184;9.162;2023-07-16T10:21:57;24.20;99.90
11812;DHT22;5963;50.184;9.162;2023-07-16T10:24:40;24.10;99.90
11812;DHT22;5963;50.184;9.162;2023-07-16T10:27:10;24.50;99.90
11812;DHT22;5963;50.184;9.162;2023-07-16T10:29:50;24.90;99.90
11812;DHT22;5963;50.184;9.162;2023-07-16T10:32:29;24.90;99.90
11812;DHT22;5963;50.184;9.162;2023-07-16T10:35:03;24.50;99.90
11812;DHT22;5963;50.184;9.162;2023-07-16T10:37:46;24.40;99.90
11812;DHT22;5963;50.184;9.162;2023-07-16T10:40:24;24.20;99.90
11812;DHT22;5963;50.184;9.162;2023-07-16T10:43:04;24.10;99.90
11812;DHT22;5963;50.184;9.162;2023-07-16T10:45:36;24.40;99.90
11812;DHT22;5963;50.184;9.162;2023-07-16T10:48:24;24.40;99.90
11812;DHT22;5963;50.184;9.162;2023-07-16T10:50:58;24.60;99.90
11812;DHT22;5963;50.184;9.162;2023-07-16T10:53:31;24.80;99.90
11812;DHT22;5963;50.184;9.162;2023-07-16T10:56:08;24.60;99.90
11812;DHT22;5963;50.184;9.162;2023-07-16T10:58:39;23.90;99.90
11812;DHT22;5963;50.184;9.162;2023-07-16T11:01:18;24.60;99.90
11812;DHT22;5963;50.184;9.162;2023-07-16T11:06:51;24.70;99.90
11812;DHT22;5963;50.184;9.162;2023-07-16T11:09:25;25.10;99.90
11812;DHT22;5963;50.184;9.162;2023-07-16T11:12:15;25.70;99.90
11812;DHT22;5963;50.184;9.162;2023-07-16T11:14:50;26.40;99.90
11812;DHT22;5963;50.184;9.162;2023-07-16T11:17:21;26.00;99.90
11812;DHT22;5963;50.184;9.162;2023-07-16T11:19:56;25.50;99.90
11812;DHT22;5963;50.184;9.162;2023-07-16T11:22:36;25.00;99.90
11812;DHT22;5963;50.184;9.162;2023-07-16T11:25:15;24.80;99.90
11812;DHT22;5963;50.184;9.162;2023-07-16T11:27:56;25.40;99.80
11812;DHT22;5963;50.184;9.162;2023-07-16T11:30:31;25.70;98.80
11812;DHT22;5963;50.184;9.162;2023-07-16T11:33:09;25.60;99.90
11812;DHT22;5963;50.184;9.162;2023-07-16T11:35:57;25.90;98.20
11812;DHT22;5963;50.184;9.162;2023-07-16T11:38:30;25.50;97.90
11812;DHT22;5963;50.184;9.162;2023-07-16T11:41:26;25.60;97.60
11812;DHT22;5963;50.184;9.162;2023-07-16T11:44:03;25.70;97.30
11812;DHT22;5963;50.184;9.162;2023-07-16T11:46:48;25.60;97.20
11812;DHT22;5963;50.184;9.162;2023-07-16T11:49:25;24.90;97.40
11812;DHT22;5963;50.184;9.162;2023-07-16T11:51:55;25.00;98.40
11812;DHT22;5963;50.184;9.162;2023-07-16T11:54:27;25.40;97.50
11812;DHT22;5963;50.184;9.162;2023-07-16T11:56:57;25.90;96.00
11812;DHT22;5963;50.184;9.162;2023-07-16T11:59:51;26.00;95.50
11812;DHT22;5963;50.184;9.162;2023-07-16T12:02:22;26.40;95.60
11812;DHT22;5963;50.184;9.162;2023-07-16T12:05:02;26.80;96.10
11812;DHT22;5963;50.184;9.162;2023-07-16T12:07:34;25.80;94.20
11812;DHT22;5963;50.184;9.162;2023-07-16T12:10:16;25.80;94.40
11812;DHT22;5963;50.184;9.162;2023-07-16T12:12:50;26.10;94.30
11812;DHT22;5963;50.184;9.162;2023-07-16T12:15:23;26.20;94.40
11812;DHT22;5963;50.184;9.162;2023-07-16T12:17:55;26.50;94.60
11812;DHT22;5963;50.184;9.162;2023-07-16T12:20:33;26.30;94.00
11812;DHT22;5963;50.184;9.162;2023-07-16T12:23:06;26.30;94.00
11812;DHT22;5963;50.184;9.162;2023-07-16T12:25:45;26.90;94.00
11812;DHT22;5963;50.184;9.162;2023-07-16T12:28:16;26.90;92.50
11812;DHT22;5963;50.184;9.162;2023-07-16T12:30:46;26.80;93.40
11812;DHT22;5963;50.184;9.162;2023-07-16T12:33:17;27.20;91.30
11812;DHT22;5963;50.184;9.162;2023-07-16T12:35:49;26.80;91.90
11812;DHT22;5963;50.184;9.162;2023-07-16T12:38:28;26.30;93.20
11812;DHT22;5963;50.184;9.162;2023-07-16T12:41:02;26.40;92.60
11812;DHT22;5963;50.184;9.162;2023-07-16T12:43:36;26.80;92.10
11812;DHT22;5963;50.184;9.162;2023-07-16T12:46:08;26.80;92.30
11812;DHT22;5963;50.184;9.162;2023-07-16T12:48:42;26.70;92.90
11812;DHT22;5963;50.184;9.162;2023-07-16T12:51:16;26.70;93.00
11812;DHT22;5963;50.184;9.162;2023-07-16T12:53:49;27.10;92.00
11812;DHT22;5963;50.184;9.162;2023-07-16T12:56:24;27.10;91.40
11812;DHT22;5963;50.184;9.162;2023-07-16T12:59:17;27.10;91.70
11812;DHT22;5963;50.184;9.162;2023-07-16T13:01:49;27.60;91.70
11812;DHT22;5963;50.184;9.162;2023-07-16T13:04:19;27.50;92.20
11812;DHT22;5963;50.184;9.162;2023-07-16T13:06:49;27.60;91.20
11812;DHT22;5963;50.184;9.162;2023-07-16T13:09:19;27.70;91.30
11812;DHT22;5963;50.184;9.162;2023-07-16T13:11:51;27.80;91.00
11812;DHT22;5963;50.184;9.162;2023-07-16T13:14:22;28.10;91.00
11812;DHT22;5963;50.184;9.162;2023-07-16T13:16:55;27.70;90.90
11812;DHT22;5963;50.184;9.162;2023-07-16T13:19:32;27.10;90.70
11812;DHT22;5963;50.184;9.162;2023-07-16T13:22:10;26.70;90.50
11812;DHT22;5963;50.184;9.162;2023-07-16T13:24:40;27.10;91.80
11812;DHT22;5963;50.184;9.162;2023-07-16T13:27:28;27.00;90.70
11812;DHT22;5963;50.184;9.162;2023-07-16T13:29:58;26.10;90.70
11812;DHT22;5963;50.184;9.162;2023-07-16T13:32:29;26.40;90.80
11812;DHT22;5963;50.184;9.162;2023-07-16T13:35:10;26.60;91.30
11812;DHT22;5963;50.184;9.162;2023-07-16T13:37:46;27.30;91.30
11812;DHT22;5963;50.184;9.162;2023-07-16T13:40:22;27.50;90.60
11812;DHT22;5963;50.184;9.162;2023-07-16T13:42:54;27.10;90.30
11812;DHT22;5963;50.184;9.162;2023-07-16T13:45:31;27.20;91.00
11812;DHT22;5963;50.184;9.162;2023-07-16T13:48:06;26.60;90.40
11812;DHT22;5963;50.184;9.162;2023-07-16T13:50:39;26.40;91.30
11812;DHT22;5963;50.184;9.162;2023-07-16T13:53:09;26.50;90.50
11812;DHT22;5963;50.184;9.162;2023-07-16T13:55:44;26.30;90.20
11812;DHT22;5963;50.184;9.162;2023-07-16T13:58:21;26.20;91.00
11812;DHT22;5963;50.184;9.162;2023-07-16T14:00:51;26.60;90.10
11812;DHT22;5963;50.184;9.162;2023-07-16T14:03:25;26.70;89.40
11812;DHT22;5963;50.184;9.162;2023-07-16T14:05:54;27.00;89.00
11812;DHT22;5963;50.184;9.162;2023-07-16T14:08:24;26.90;89.80
11812;DHT22;5963;50.184;9.162;2023-07-16T14:10:57;26.70;88.10
11812;DHT22;5963;50.184;9.162;2023-07-16T14:13:34;26.60;90.20
11812;DHT22;5963;50.184;9.162;2023-07-16T14:16:04;26.90;88.50
11812;DHT22;5963;50.184;9.162;2023-07-16T14:18:34;26.80;88.30
11812;DHT22;5963;50.184;9.162;2023-07-16T14:21:06;26.90;89.20
11812;DHT22;5963;50.184;9.162;2023-07-16T14:23:40;27.10;89.50
11812;DHT22;5963;50.184;9.162;2023-07-16T14:26:11;26.80;90.00
11812;DHT22;5963;50.184;9.162;2023-07-16T14:28:42;27.30;88.60
11812;DHT22;5963;50.184;9.162;2023-07-16T14:31:14;27.40;89.10
11812;DHT22;5963;50.184;9.162;2023-07-16T14:33:45;26.80;89.70
11812;DHT22;5963;50.184;9.162;2023-07-16T14:36:18;26.50;90.10
11812;DHT22;5963;50.184;9.162;2023-07-16T14:38:50;26.60;90.20
11812;DHT22;5963;50.184;9.162;2023-07-16T14:41:32;26.20;89.60
11812;DHT22;5963;50.184;9.162;2023-07-16T14:44:10;26.90;88.50
11812;DHT22;5963;50.184;9.162;2023-07-16T14:46:40;27.20;88.60
11812;DHT22;5963;50.184;9.162;2023-07-16T14:49:11;27.50;87.60
11812;DHT22;5963;50.184;9.162;2023-07-16T14:51:42;27.80;86.80
11812;DHT22;5963;50.184;9.162;2023-07-16T14:54:15;27.80;87.70
11812;DHT22;5963;50.184;9.162;2023-07-16T14:56:49;27.10;86.10
11812;DHT22;5963;50.184;9.162;2023-07-16T14:59:21;27.10;87.20
11812;DHT22;5963;50.184;9.162;2023-07-16T15:01:51;26.90;87.40
11812;DHT22;5963;50.184;9.162;2023-07-16T15:04:29;27.10;87.80
11812;DHT22;5963;50.184;9.162;2023-07-16T15:06:59;27.30;88.40
11812;DHT22;5963;50.184;9.162;2023-07-16T15:09:29;27.60;87.40
11812;DHT22;5963;50.184;9.162;2023-07-16T15:11:59;27.30;85.90
11812;DHT22;5963;50.184;9.162;2023-07-16T15:14:30;27.50;85.30
11812;DHT22;5963;50.184;9.162;2023-07-16T15:17:03;27.50;86.00
11812;DHT22;5963;50.184;9.162;2023-07-16T15:19:38;27.30;85.30
11812;DHT22;5963;50.184;9.162;2023-07-16T15:22:09;27.30;85.90
11812;DHT22;5963;50.184;9.162;2023-07-16T15:24:39;27.30;85.40
11812;DHT22;5963;50.184;9.162;2023-07-16T15:27:11;27.30;85.40
11812;DHT22;5963;50.184;9.162;2023-07-16T15:29:44;27.40;84.30
11812;DHT22;5963;50.184;9.162;2023-07-16T15:32:15;27.40;85.50
11812;DHT22;5963;50.184;9.162;2023-07-16T15:34:49;27.40;84.20
11812;DHT22;5963;50.184;9.162;2023-07-16T15:37:25;27.00;84.90
11812;DHT22;5963;50.184;9.162;2023-07-16T15:39:55;26.60;86.70
11812;DHT22;5963;50.184;9.162;2023-07-16T15:42:27;26.50;86.50
11812;DHT22;5963;50.184;9.162;2023-07-16T15:45:00;27.00;86.40
11812;DHT22;5963;50.184;9.162;2023-07-16T15:47:33;27.20;83.90
11812;DHT22;5963;50.184;9.162;2023-07-16T15:50:07;27.00;84.30
11812;DHT22;5963;50.184;9.162;2023-07-16T15:52:37;26.90;84.70
11812;DHT22;5963;50.184;9.162;2023-07-16T15:55:15;26.80;84.60
11812;DHT22;5963;50.184;9.162;2023-07-16T15:57:45;26.80;86.00
11812;DHT22;5963;50.184;9.162;2023-07-16T16:00:17;26.40;86.60
11812;DHT22;5963;50.184;9.162;2023-07-16T16:02:56;25.90;87.20
11812;DHT22;5963;50.184;9.162;2023-07-16T16:05:27;25.60;87.10
11812;DHT22;5963;50.184;9.162;2023-07-16T16:08:14;25.60;87.80
11812;DHT22;5963;50.184;9.162;2023-07-16T16:10:45;25.80;87.60
11812;DHT22;5963;50.184;9.162;2023-07-16T16:13:16;25.90;86.40
11812;DHT22;5963;50.184;9.162;2023-07-16T16:15:48;25.60;87.40
11812;DHT22;5963;50.184;9.162;2023-07-16T16:18:19;25.90;86.60
11812;DHT22;5963;50.184;9.162;2023-07-16T16:20:53;26.20;86.70
11812;DHT22;5963;50.184;9.162;2023-07-16T16:23:24;26.40;86.30
11812;DHT22;5963;50.184;9.162;2023-07-16T16:25:54;26.10;85.50
11812;DHT22;5963;50.184;9.162;2023-07-16T16:28:24;26.30;85.70
11812;DHT22;5963;50.184;9.162;2023-07-16T16:30:57;26.40;85.50
11812;DHT22;5963;50.184;9.162;2023-07-16T16:33:27;26.20;85.20
11812;DHT22;5963;50.184;9.162;2023-07-16T16:35:58;26.40;85.70